sensor_id;sensor_type;location;lat;lon;timestamp;P1;durP1;ratioP1;P2;durP2;ratioP2
45388;SDS011;31127;52.078;4.370;2024-02-14T00:00:44;18.17;;;13.27;;
45388;SDS011;31127;52.078;4.370;2024-02-14T00:05:43;20.42;;;14.70;;
45388;SDS011;31127;52.078;4.370;2024-02-14T00:10:39;18.42;;;14.57;;
45388;SDS011;31127;52.078;4.370;2024-02-14T00:15:35;22.83;;;16.63;;
45388;SDS011;31127;52.078;4.370;2024-02-14T00:20:34;21.25;;;16.25;;
45388;SDS011;31127;52.078;4.370;2024-02-14T00:25:31;17.05;;;11.90;;
45388;SDS011;31127;52.078;4.370;2024-02-14T00:30:35;24.85;;;17.50;;
45388;SDS011;31127;52.078;4.370;2024-02-14T00:35:30;19.33;;;15.38;;
45388;SDS011;31127;52.078;4.370;2024-02-14T00:40:29;22.27;;;16.23;;
45388;SDS011;31127;52.078;4.370;2024-02-14T00:45:25;23.33;;;17.00;;
45388;SDS011;31127;52.078;4.370;2024-02-14T00:50:20;16.73;;;13.10;;
45388;SDS011;31127;52.078;4.370;2024-02-14T00:55:16;25.35;;;17.95;;
45388;SDS011;31127;52.078;4.370;2024-02-14T01:00:12;25.00;;;16.27;;
45388;SDS011;31127;52.078;4.370;2024-02-14T01:05:26;18.20;;;15.07;;
45388;SDS011;31127;52.078;4.370;2024-02-14T01:10:22;31.67;;;14.93;;
45388;SDS011;31127;52.078;4.370;2024-02-14T01:15:17;20.80;;;15.15;;
45388;SDS011;31127;52.078;4.370;2024-02-14T01:20:15;20.65;;;12.98;;
45388;SDS011;31127;52.078;4.370;2024-02-14T01:25:22;14.00;;;8.10;;
45388;SDS011;31127;52.078;4.370;2024-02-14T01:30:38;16.42;;;10.23;;
45388;SDS011;31127;52.078;4.370;2024-02-14T01:35:33;18.10;;;12.33;;
45388;SDS011;31127;52.078;4.370;2024-02-14T01:40:29;20.38;;;11.82;;
45388;SDS011;31127;52.078;4.370;2024-02-14T01:45:24;18.80;;;11.83;;
45388;SDS011;31127;52.078;4.370;2024-02-14T01:50:20;15.07;;;10.35;;
45388;SDS011;31127;52.078;4.370;2024-02-14T01:55:23;18.13;;;10.00;;
45388;SDS011;31127;52.078;4.370;2024-02-14T02:00:22;15.05;;;10.07;;
45388;SDS011;31127;52.078;4.370;2024-02-14T02:05:17;21.23;;;10.25;;
45388;SDS011;31127;52.078;4.370;2024-02-14T02:10:19;15.63;;;10.48;;
45388;SDS011;31127;52.078;4.370;2024-02-14T02:15:19;19.85;;;13.07;;
45388;SDS011;31127;52.078;4.370;2024-02-14T02:20:17;23.95;;;12.02;;
45388;SDS011;31127;52.078;4.370;2024-02-14T02:25:13;21.27;;;11.15;;
45388;SDS011;31127;52.078;4.370;2024-02-14T02:30:09;26.67;;;11.93;;
45388;SDS011;31127;52.078;4.370;2024-02-14T02:35:06;22.40;;;10.20;;
45388;SDS011;31127;52.078;4.370;2024-02-14T02:40:01;24.02;;;10.00;;
45388;SDS011;31127;52.078;4.370;2024-02-14T02:44:57;27.88;;;11.45;;
45388;SDS011;31127;52.078;4.370;2024-02-14T02:49:52;30.25;;;10.93;;
45388;SDS011;31127;52.078;4.370;2024-02-14T02:54:48;30.15;;;10.68;;
45388;SDS011;31127;52.078;4.370;2024-02-14T02:59:51;36.88;;;10.85;;
45388;SDS011;31127;52.078;4.370;2024-02-14T03:04:46;31.42;;;10.48;;
45388;SDS011;31127;52.078;4.370;2024-02-14T03:09:42;32.53;;;9.00;;
45388;SDS011;31127;52.078;4.370;2024-02-14T03:14:38;42.28;;;8.88;;
45388;SDS011;31127;52.078;4.370;2024-02-14T03:19:34;39.80;;;10.82;;
45388;SDS011;31127;52.078;4.370;2024-02-14T03:24:34;26.48;;;9.32;;
45388;SDS011;31127;52.078;4.370;2024-02-14T03:29:31;40.42;;;9.85;;
45388;SDS011;31127;52.078;4.370;2024-02-14T03:34:27;33.72;;;9.15;;
45388;SDS011;31127;52.078;4.370;2024-02-14T03:39:25;32.67;;;9.63;;
45388;SDS011;31127;52.078;4.370;2024-02-14T03:44:22;33.10;;;9.13;;
45388;SDS011;31127;52.078;4.370;2024-02-14T03:49:18;29.75;;;8.18;;
45388;SDS011;31127;52.078;4.370;2024-02-14T03:54:14;43.67;;;10.50;;
45388;SDS011;31127;52.078;4.370;2024-02-14T03:59:10;39.92;;;10.57;;
45388;SDS011;31127;52.078;4.370;2024-02-14T04:04:09;42.42;;;10.75;;
45388;SDS011;31127;52.078;4.370;2024-02-14T04:09:04;39.45;;;10.95;;
45388;SDS011;31127;52.078;4.370;2024-02-14T04:14:03;37.55;;;10.82;;
45388;SDS011;31127;52.078;4.370;2024-02-14T04:19:07;37.78;;;9.00;;
45388;SDS011;31127;52.078;4.370;2024-02-14T04:24:04;30.75;;;11.02;;
45388;SDS011;31127;52.078;4.370;2024-02-14T04:28:59;40.45;;;11.45;;
45388;SDS011;31127;52.078;4.370;2024-02-14T04:33:55;40.83;;;11.05;;
45388;SDS011;31127;52.078;4.370;2024-02-14T04:38:51;45.33;;;13.05;;
45388;SDS011;31127;52.078;4.370;2024-02-14T04:43:51;40.97;;;11.70;;
45388;SDS011;31127;52.078;4.370;2024-02-14T04:48:46;46.38;;;12.82;;
45388;SDS011;31127;52.078;4.370;2024-02-14T04:53:42;36.05;;;11.18;;
45388;SDS011;31127;52.078;4.370;2024-02-14T04:58:37;37.65;;;11.57;;
45388;SDS011;31127;52.078;4.370;2024-02-14T05:03:33;29.50;;;11.02;;
45388;SDS011;31127;52.078;4.370;2024-02-14T05:08:29;39.58;;;10.82;;
45388;SDS011;31127;52.078;4.370;2024-02-14T05:13:24;27.70;;;10.10;;
45388;SDS011;31127;52.078;4.370;2024-02-14T05:18:20;24.10;;;8.57;;
45388;SDS011;31127;52.078;4.370;2024-02-14T05:23:15;28.33;;;7.35;;
45388;SDS011;31127;52.078;4.370;2024-02-14T05:28:14;22.38;;;7.60;;
45388;SDS011;31127;52.078;4.370;2024-02-14T05:33:10;27.77;;;9.30;;
45388;SDS011;31127;52.078;4.370;2024-02-14T05:38:08;32.03;;;8.43;;
45388;SDS011;31127;52.078;4.370;2024-02-14T05:43:04;33.97;;;10.05;;
45388;SDS011;31127;52.078;4.370;2024-02-14T05:48:00;40.60;;;10.18;;
45388;SDS011;31127;52.078;4.370;2024-02-14T05:52:56;35.50;;;11.98;;
45388;SDS011;31127;52.078;4.370;2024-02-14T05:57:56;32.95;;;10.70;;
45388;SDS011;31127;52.078;4.370;2024-02-14T06:02:54;32.35;;;10.23;;
45388;SDS011;31127;52.078;4.370;2024-02-14T06:07:50;36.35;;;9.57;;
45388;SDS011;31127;52.078;4.370;2024-02-14T06:12:48;32.58;;;9.90;;
45388;SDS011;31127;52.078;4.370;2024-02-14T06:17:44;23.00;;;9.00;;
45388;SDS011;31127;52.078;4.370;2024-02-14T06:23:02;33.50;;;11.38;;
45388;SDS011;31127;52.078;4.370;2024-02-14T06:27:58;33.85;;;10.57;;
45388;SDS011;31127;52.078;4.370;2024-02-14T06:32:53;34.63;;;12.43;;
45388;SDS011;31127;52.078;4.370;2024-02-14T06:37:49;30.90;;;12.65;;
45388;SDS011;31127;52.078;4.370;2024-02-14T06:42:44;30.42;;;12.23;;
45388;SDS011;31127;52.078;4.370;2024-02-14T06:47:42;30.92;;;11.60;;
45388;SDS011;31127;52.078;4.370;2024-02-14T06:52:38;30.95;;;13.05;;
45388;SDS011;31127;52.078;4.370;2024-02-14T06:57:36;30.92;;;11.25;;
45388;SDS011;31127;52.078;4.370;2024-02-14T07:02:35;34.58;;;10.57;;
45388;SDS011;31127;52.078;4.370;2024-02-14T07:07:30;24.20;;;11.32;;
45388;SDS011;31127;52.078;4.370;2024-02-14T07:12:33;21.00;;;8.55;;
45388;SDS011;31127;52.078;4.370;2024-02-14T07:17:34;23.83;;;9.02;;
45388;SDS011;31127;52.078;4.370;2024-02-14T07:22:29;24.25;;;10.23;;
45388;SDS011;31127;52.078;4.370;2024-02-14T07:27:25;26.55;;;8.98;;
45388;SDS011;31127;52.078;4.370;2024-02-14T07:32:23;22.08;;;7.82;;
45388;SDS011;31127;52.078;4.370;2024-02-14T07:37:19;20.10;;;6.60;;
45388;SDS011;31127;52.078;4.370;2024-02-14T07:42:15;30.00;;;7.72;;
45388;SDS011;31127;52.078;4.370;2024-02-14T07:47:10;18.73;;;7.70;;
45388;SDS011;31127;52.078;4.370;2024-02-14T07:52:06;17.67;;;7.65;;
45388;SDS011;31127;52.078;4.370;2024-02-14T07:57:22;22.48;;;9.85;;
45388;SDS011;31127;52.078;4.370;2024-02-14T08:02:18;20.52;;;8.98;;
45388;SDS011;31127;52.078;4.370;2024-02-14T08:07:14;19.35;;;8.65;;
45388;SDS011;31127;52.078;4.370;2024-02-14T08:12:10;14.82;;;7.82;;
45388;SDS011;31127;52.078;4.370;2024-02-14T08:17:05;21.25;;;13.65;;
45388;SDS011;31127;52.078;4.370;2024-02-14T08:22:01;15.05;;;8.73;;
45388;SDS011;31127;52.078;4.370;2024-02-14T08:26:57;14.48;;;10.23;;
45388;SDS011;31127;52.078;4.370;2024-02-14T08:31:58;22.05;;;13.82;;
45388;SDS011;31127;52.078;4.370;2024-02-14T08:36:53;20.88;;;13.90;;
45388;SDS011;31127;52.078;4.370;2024-02-14T08:41:49;19.83;;;13.88;;
45388;SDS011;31127;52.078;4.370;2024-02-14T08:46:45;27.13;;;16.23;;
45388;SDS011;31127;52.078;4.370;2024-02-14T08:51:43;17.92;;;14.13;;
45388;SDS011;31127;52.078;4.370;2024-02-14T08:56:39;17.58;;;13.63;;
45388;SDS011;31127;52.078;4.370;2024-02-14T09:01:34;21.88;;;14.48;;
45388;SDS011;31127;52.078;4.370;2024-02-14T09:06:35;21.98;;;14.60;;
45388;SDS011;31127;52.078;4.370;2024-02-14T09:11:32;19.48;;;14.27;;
45388;SDS011;31127;52.078;4.370;2024-02-14T09:16:28;16.15;;;12.93;;
45388;SDS011;31127;52.078;4.370;2024-02-14T09:21:23;16.50;;;11.63;;
45388;SDS011;31127;52.078;4.370;2024-02-14T09:26:19;13.40;;;11.45;;
45388;SDS011;31127;52.078;4.370;2024-02-14T09:31:34;11.57;;;10.02;;
45388;SDS011;31127;52.078;4.370;2024-02-14T09:36:30;11.25;;;8.82;;
45388;SDS011;31127;52.078;4.370;2024-02-14T09:41:35;19.98;;;9.63;;
45388;SDS011;31127;52.078;4.370;2024-02-14T09:46:32;12.15;;;9.60;;
45388;SDS011;31127;52.078;4.370;2024-02-14T09:51:30;12.60;;;9.82;;
45388;SDS011;31127;52.078;4.370;2024-02-14T09:56:27;12.20;;;9.65;;
45388;SDS011;31127;52.078;4.370;2024-02-14T10:06:38;8.15;;;7.28;;
45388;SDS011;31127;52.078;4.370;2024-02-14T10:11:34;9.55;;;7.25;;
45388;SDS011;31127;52.078;4.370;2024-02-14T10:16:30;7.97;;;6.75;;
45388;SDS011;31127;52.078;4.370;2024-02-14T10:21:25;7.50;;;6.70;;
45388;SDS011;31127;52.078;4.370;2024-02-14T10:26:23;4.97;;;4.50;;
45388;SDS011;31127;52.078;4.370;2024-02-14T10:31:24;5.75;;;5.18;;
45388;SDS011;31127;52.078;4.370;2024-02-14T10:36:21;6.53;;;5.30;;
45388;SDS011;31127;52.078;4.370;2024-02-14T10:41:16;7.97;;;5.43;;
45388;SDS011;31127;52.078;4.370;2024-02-14T10:46:17;7.28;;;6.03;;
45388;SDS011;31127;52.078;4.370;2024-02-14T10:51:14;13.85;;;5.85;;
45388;SDS011;31127;52.078;4.370;2024-02-14T10:56:12;5.93;;;5.32;;
45388;SDS011;31127;52.078;4.370;2024-02-14T11:01:09;7.78;;;4.90;;
45388;SDS011;31127;52.078;4.370;2024-02-14T11:06:05;7.55;;;5.95;;
45388;SDS011;31127;52.078;4.370;2024-02-14T11:11:01;7.30;;;6.22;;
45388;SDS011;31127;52.078;4.370;2024-02-14T11:15:57;8.25;;;5.93;;
45388;SDS011;31127;52.078;4.370;2024-02-14T11:20:55;6.38;;;5.78;;
45388;SDS011;31127;52.078;4.370;2024-02-14T11:25:59;7.60;;;6.55;;
45388;SDS011;31127;52.078;4.370;2024-02-14T11:30:58;12.53;;;6.90;;
45388;SDS011;31127;52.078;4.370;2024-02-14T11:35:56;7.60;;;5.97;;
45388;SDS011;31127;52.078;4.370;2024-02-14T11:40:54;6.32;;;5.28;;
45388;SDS011;31127;52.078;4.370;2024-02-14T11:45:52;7.97;;;5.75;;
45388;SDS011;31127;52.078;4.370;2024-02-14T11:50:47;7.22;;;6.20;;
45388;SDS011;31127;52.078;4.370;2024-02-14T11:55:43;7.45;;;5.30;;
45388;SDS011;31127;52.078;4.370;2024-02-14T12:00:39;8.63;;;5.15;;
45388;SDS011;31127;52.078;4.370;2024-02-14T12:05:38;7.50;;;6.70;;
45388;SDS011;31127;52.078;4.370;2024-02-14T12:10:37;11.20;;;7.85;;
45388;SDS011;31127;52.078;4.370;2024-02-14T12:15:42;8.60;;;6.65;;
45388;SDS011;31127;52.078;4.370;2024-02-14T12:20:52;10.63;;;7.00;;
45388;SDS011;31127;52.078;4.370;2024-02-14T12:26:01;9.73;;;6.93;;
45388;SDS011;31127;52.078;4.370;2024-02-14T12:30:57;9.30;;;7.57;;
45388;SDS011;31127;52.078;4.370;2024-02-14T12:35:54;6.57;;;5.70;;
45388;SDS011;31127;52.078;4.370;2024-02-14T12:40:50;9.18;;;6.90;;
45388;SDS011;31127;52.078;4.370;2024-02-14T12:45:48;9.48;;;7.25;;
45388;SDS011;31127;52.078;4.370;2024-02-14T12:50:44;10.77;;;7.75;;
45388;SDS011;31127;52.078;4.370;2024-02-14T12:55:43;10.02;;;8.15;;
45388;SDS011;31127;52.078;4.370;2024-02-14T13:00:39;12.93;;;9.90;;
45388;SDS011;31127;52.078;4.370;2024-02-14T13:05:35;13.20;;;9.40;;
45388;SDS011;31127;52.078;4.370;2024-02-14T13:10:31;10.25;;;8.48;;
45388;SDS011;31127;52.078;4.370;2024-02-14T13:15:27;11.38;;;7.53;;
45388;SDS011;31127;52.078;4.370;2024-02-14T13:20:23;6.72;;;5.78;;
45388;SDS011;31127;52.078;4.370;2024-02-14T13:25:19;5.70;;;4.07;;
45388;SDS011;31127;52.078;4.370;2024-02-14T13:30:14;5.93;;;4.00;;
45388;SDS011;31127;52.078;4.370;2024-02-14T13:35:10;3.85;;;2.75;;
45388;SDS011;31127;52.078;4.370;2024-02-14T13:40:09;2.45;;;2.03;;
45388;SDS011;31127;52.078;4.370;2024-02-14T13:45:05;7.00;;;2.67;;
45388;SDS011;31127;52.078;4.370;2024-02-14T13:50:08;5.28;;;2.13;;
45388;SDS011;31127;52.078;4.370;2024-02-14T13:55:04;2.00;;;1.25;;
45388;SDS011;31127;52.078;4.370;2024-02-14T14:00:00;1.40;;;1.25;;
45388;SDS011;31127;52.078;4.370;2024-02-14T14:04:56;1.98;;;1.33;;
45388;SDS011;31127;52.078;4.370;2024-02-14T14:09:52;2.50;;;1.17;;
45388;SDS011;31127;52.078;4.370;2024-02-14T14:14:48;2.53;;;1.52;;
45388;SDS011;31127;52.078;4.370;2024-02-14T14:19:43;7.00;;;1.90;;
45388;SDS011;31127;52.078;4.370;2024-02-14T14:24:39;4.32;;;2.28;;
45388;SDS011;31127;52.078;4.370;2024-02-14T14:29:34;5.45;;;1.98;;
45388;SDS011;31127;52.078;4.370;2024-02-14T14:34:33;4.13;;;2.00;;
45388;SDS011;31127;52.078;4.370;2024-02-14T14:39:28;6.75;;;2.28;;
45388;SDS011;31127;52.078;4.370;2024-02-14T14:44:27;7.93;;;2.53;;
45388;SDS011;31127;52.078;4.370;2024-02-14T14:49:23;14.93;;;2.80;;
45388;SDS011;31127;52.078;4.370;2024-02-14T14:54:21;15.00;;;3.22;;
45388;SDS011;31127;52.078;4.370;2024-02-14T14:59:17;12.20;;;3.10;;
45388;SDS011;31127;52.078;4.370;2024-02-14T15:04:15;9.80;;;3.90;;
45388;SDS011;31127;52.078;4.370;2024-02-14T15:09:19;9.82;;;2.85;;
45388;SDS011;31127;52.078;4.370;2024-02-14T15:14:16;12.00;;;2.90;;
45388;SDS011;31127;52.078;4.370;2024-02-14T15:19:13;13.65;;;3.30;;
45388;SDS011;31127;52.078;4.370;2024-02-14T15:24:08;11.43;;;3.30;;
45388;SDS011;31127;52.078;4.370;2024-02-14T15:29:04;14.07;;;3.08;;
45388;SDS011;31127;52.078;4.370;2024-02-14T15:34:19;13.95;;;3.45;;
45388;SDS011;31127;52.078;4.370;2024-02-14T15:39:14;17.45;;;3.63;;
45388;SDS011;31127;52.078;4.370;2024-02-14T15:44:33;17.98;;;3.53;;
45388;SDS011;31127;52.078;4.370;2024-02-14T15:49:29;20.05;;;3.78;;
45388;SDS011;31127;52.078;4.370;2024-02-14T15:54:24;18.08;;;4.60;;
45388;SDS011;31127;52.078;4.370;2024-02-14T15:59:20;20.15;;;4.47;;
45388;SDS011;31127;52.078;4.370;2024-02-14T16:04:19;15.48;;;4.40;;
45388;SDS011;31127;52.078;4.370;2024-02-14T16:09:23;21.80;;;4.53;;
45388;SDS011;31127;52.078;4.370;2024-02-14T16:14:18;23.23;;;4.93;;
45388;SDS011;31127;52.078;4.370;2024-02-14T16:19:18;22.17;;;5.47;;
45388;SDS011;31127;52.078;4.370;2024-02-14T16:24:14;25.23;;;6.07;;
45388;SDS011;31127;52.078;4.370;2024-02-14T16:29:10;20.83;;;5.63;;
45388;SDS011;31127;52.078;4.370;2024-02-14T16:34:06;25.73;;;6.53;;
45388;SDS011;31127;52.078;4.370;2024-02-14T16:39:04;26.60;;;5.07;;
45388;SDS011;31127;52.078;4.370;2024-02-14T16:44:00;24.13;;;5.53;;
45388;SDS011;31127;52.078;4.370;2024-02-14T16:48:55;28.80;;;6.78;;
45388;SDS011;31127;52.078;4.370;2024-02-14T16:53:54;29.70;;;7.45;;
45388;SDS011;31127;52.078;4.370;2024-02-14T16:58:50;20.60;;;6.38;;
45388;SDS011;31127;52.078;4.370;2024-02-14T17:03:45;35.45;;;7.10;;
45388;SDS011;31127;52.078;4.370;2024-02-14T17:08:41;25.33;;;7.22;;
45388;SDS011;31127;52.078;4.370;2024-02-14T17:13:38;22.67;;;7.07;;
45388;SDS011;31127;52.078;4.370;2024-02-14T17:18:37;22.23;;;5.75;;
45388;SDS011;31127;52.078;4.370;2024-02-14T17:23:38;23.38;;;5.72;;
45388;SDS011;31127;52.078;4.370;2024-02-14T17:28:35;20.60;;;5.93;;
45388;SDS011;31127;52.078;4.370;2024-02-14T17:33:31;23.63;;;5.97;;
45388;SDS011;31127;52.078;4.370;2024-02-14T17:38:30;24.27;;;6.50;;
45388;SDS011;31127;52.078;4.370;2024-02-14T17:43:26;25.92;;;6.05;;
45388;SDS011;31127;52.078;4.370;2024-02-14T17:48:23;21.45;;;5.88;;
45388;SDS011;31127;52.078;4.370;2024-02-14T17:53:22;18.80;;;6.13;;
45388;SDS011;31127;52.078;4.370;2024-02-14T17:58:25;18.33;;;5.20;;
45388;SDS011;31127;52.078;4.370;2024-02-14T18:03:22;20.98;;;6.82;;
45388;SDS011;31127;52.078;4.370;2024-02-14T18:08:37;17.17;;;5.95;;
45388;SDS011;31127;52.078;4.370;2024-02-14T18:13:37;18.27;;;5.57;;
45388;SDS011;31127;52.078;4.370;2024-02-14T18:18:34;12.25;;;6.13;;
45388;SDS011;31127;52.078;4.370;2024-02-14T18:23:34;16.02;;;5.40;;
45388;SDS011;31127;52.078;4.370;2024-02-14T18:28:30;21.52;;;6.25;;
45388;SDS011;31127;52.078;4.370;2024-02-14T18:33:29;23.45;;;6.57;;
45388;SDS011;31127;52.078;4.370;2024-02-14T18:38:24;15.88;;;6.15;;
45388;SDS011;31127;52.078;4.370;2024-02-14T18:43:26;17.98;;;5.63;;
45388;SDS011;31127;52.078;4.370;2024-02-14T18:48:22;20.92;;;6.90;;
45388;SDS011;31127;52.078;4.370;2024-02-14T18:53:18;18.13;;;5.50;;
45388;SDS011;31127;52.078;4.370;2024-02-14T18:58:14;16.70;;;6.85;;
45388;SDS011;31127;52.078;4.370;2024-02-14T19:03:12;19.58;;;6.25;;
45388;SDS011;31127;52.078;4.370;2024-02-14T19:08:08;17.77;;;6.03;;
45388;SDS011;31127;52.078;4.370;2024-02-14T19:13:04;19.98;;;7.28;;
45388;SDS011;31127;52.078;4.370;2024-02-14T19:18:02;14.93;;;5.15;;
45388;SDS011;31127;52.078;4.370;2024-02-14T19:22:58;21.52;;;6.05;;
45388;SDS011;31127;52.078;4.370;2024-02-14T19:27:53;19.90;;;7.65;;
45388;SDS011;31127;52.078;4.370;2024-02-14T19:32:49;19.17;;;5.63;;
45388;SDS011;31127;52.078;4.370;2024-02-14T19:37:48;21.98;;;6.30;;
45388;SDS011;31127;52.078;4.370;2024-02-14T19:42:44;25.17;;;5.88;;
45388;SDS011;31127;52.078;4.370;2024-02-14T19:47:40;17.17;;;6.20;;
45388;SDS011;31127;52.078;4.370;2024-02-14T19:52:36;15.85;;;5.35;;
45388;SDS011;31127;52.078;4.370;2024-02-14T19:57:33;23.92;;;7.47;;
45388;SDS011;31127;52.078;4.370;2024-02-14T20:02:31;17.40;;;6.90;;
45388;SDS011;31127;52.078;4.370;2024-02-14T20:07:28;19.02;;;5.75;;
45388;SDS011;31127;52.078;4.370;2024-02-14T20:12:23;15.10;;;5.43;;
45388;SDS011;31127;52.078;4.370;2024-02-14T20:17:19;28.85;;;6.50;;
45388;SDS011;31127;52.078;4.370;2024-02-14T20:22:26;16.63;;;6.30;;
45388;SDS011;31127;52.078;4.370;2024-02-14T20:27:24;28.33;;;8.25;;
45388;SDS011;31127;52.078;4.370;2024-02-14T20:32:20;20.38;;;7.43;;
45388;SDS011;31127;52.078;4.370;2024-02-14T20:37:16;20.00;;;8.02;;
45388;SDS011;31127;52.078;4.370;2024-02-14T20:42:12;26.15;;;8.30;;
45388;SDS011;31127;52.078;4.370;2024-02-14T20:47:13;27.83;;;7.82;;
45388;SDS011;31127;52.078;4.370;2024-02-14T20:52:09;23.35;;;7.78;;
45388;SDS011;31127;52.078;4.370;2024-02-14T20:57:05;23.35;;;7.82;;
45388;SDS011;31127;52.078;4.370;2024-02-14T21:02:01;34.85;;;8.63;;
45388;SDS011;31127;52.078;4.370;2024-02-14T21:06:56;23.05;;;7.00;;
45388;SDS011;31127;52.078;4.370;2024-02-14T21:11:52;25.55;;;6.57;;
45388;SDS011;31127;52.078;4.370;2024-02-14T21:16:47;29.42;;;6.15;;
45388;SDS011;31127;52.078;4.370;2024-02-14T21:21:46;29.35;;;6.55;;
45388;SDS011;31127;52.078;4.370;2024-02-14T21:27:01;33.00;;;6.93;;
45388;SDS011;31127;52.078;4.370;2024-02-14T21:31:57;38.50;;;12.05;;
45388;SDS011;31127;52.078;4.370;2024-02-14T21:36:53;22.55;;;6.18;;
45388;SDS011;31127;52.078;4.370;2024-02-14T21:41:51;29.38;;;5.93;;
45388;SDS011;31127;52.078;4.370;2024-02-14T21:47:07;23.75;;;5.22;;
45388;SDS011;31127;52.078;4.370;2024-02-14T21:52:03;25.75;;;5.78;;
45388;SDS011;31127;52.078;4.370;2024-02-14T21:57:07;15.73;;;4.53;;
45388;SDS011;31127;52.078;4.370;2024-02-14T22:02:03;22.52;;;4.55;;
45388;SDS011;31127;52.078;4.370;2024-02-14T22:06:59;22.05;;;6.65;;
45388;SDS011;31127;52.078;4.370;2024-02-14T22:11:56;27.27;;;5.28;;
45388;SDS011;31127;52.078;4.370;2024-02-14T22:16:54;21.95;;;5.13;;
45388;SDS011;31127;52.078;4.370;2024-02-14T22:21:53;22.98;;;5.43;;
45388;SDS011;31127;52.078;4.370;2024-02-14T22:26:49;26.58;;;6.25;;
45388;SDS011;31127;52.078;4.370;2024-02-14T22:31:45;22.20;;;6.22;;
45388;SDS011;31127;52.078;4.370;2024-02-14T22:36:40;32.15;;;6.82;;
45388;SDS011;31127;52.078;4.370;2024-02-14T22:41:40;16.52;;;4.38;;
45388;SDS011;31127;52.078;4.370;2024-02-14T22:46:36;24.13;;;6.63;;
45388;SDS011;31127;52.078;4.370;2024-02-14T22:51:34;20.35;;;5.25;;
45388;SDS011;31127;52.078;4.370;2024-02-14T22:56:34;18.17;;;4.45;;
45388;SDS011;31127;52.078;4.370;2024-02-14T23:01:43;24.92;;;5.20;;
45388;SDS011;31127;52.078;4.370;2024-02-14T23:06:58;19.88;;;4.38;;
45388;SDS011;31127;52.078;4.370;2024-02-14T23:11:58;24.75;;;3.75;;
45388;SDS011;31127;52.078;4.370;2024-02-14T23:16:54;25.23;;;5.15;;
45388;SDS011;31127;52.078;4.370;2024-02-14T23:21:50;17.00;;;4.55;;
45388;SDS011;31127;52.078;4.370;2024-02-14T23:26:50;20.38;;;5.70;;
45388;SDS011;31127;52.078;4.370;2024-02-14T23:31:45;17.33;;;4.88;;
45388;SDS011;31127;52.078;4.370;2024-02-14T23:36:47;16.03;;;5.40;;
45388;SDS011;31127;52.078;4.370;2024-02-14T23:41:44;13.00;;;4.03;;
45388;SDS011;31127;52.078;4.370;2024-02-14T23:46:58;15.73;;;4.20;;
45388;SDS011;31127;52.078;4.370;2024-02-14T23:51:55;15.88;;;4.43;;
45388;SDS011;31127;52.078;4.370;2024-02-14T23:56:51;13.75;;;4.60;;
